Somerville, NJ

10:20 PM EDT on August 29, 2015 (GMT -0400)
Muirfield Lane | | Change Station
CLOSE
Current Station
Personal Weather Station
Location: Bridgewater, NJ
Elevation: 279 ft
Nearby Weather Stations

Elev 279 ft 40.63 °N, 74.63 °W | Updated 8 minutes ago

Partly Cloudy
Partly Cloudy
72.0 °F
Feels Like 75 °F
N
0.0
Wind Variable Wind from ESE

Today
High -- | Low -- °F
--% Chance of Precip.
Yesterday
High -- | Low -- °F
Precip. -- in
6:22 AM 7:35 PM
Full, 100% visible
Pressure 30.09 in
Visibility 10.0 miles
Clouds Few 6000 ft
Heat Index 75 °F
Dew Point 62 °F
Humidity 70%
Rainfall 0.00 in
Snow Depth Not available.
UV 0 out of 12
Pollen 10.00 out of 12
Air Quality Not available.
Flu Activity Not available.
METAR KSMQ 300153Z AUTO 16004KT 10SM FEW060 22/16 A3009 RMK AO2 SLP188 T02220161
Pressure 30.09 in
Visibility 10.0 miles
Clouds Few 6000 ft
Heat Index 75 °F
Dew Point 62 °F
Humidity 70%
Rainfall 0.00 in
Snow Depth Not available.
UV 0 out of 12
Pollen 10.00 out of 12
Air Quality Not available.
Flu Activity Not available.
METAR KSMQ 300153Z AUTO 16004KT 10SM FEW060 22/16 A3009 RMK AO2 SLP188 T02220161

10-Day Weather Forecast

×

Almanac

Astronomy

Aug. 29, 2015 Rise Set
Actual Time
Civil Twilight
Nautical Twilight
Astronomical Twilight
Moon
Length of Visible Light
Length of Day
Tomorrow will be .
, % of the Moon is Illuminated

Today's Extremes

State Highs State Lows

Community

WunderPhotos

Upload Photos

1,850,850 photos uploaded!

WunderBlogs® & News

Nearby

Air Quality

  Air Quality AQ Index Pollutant
Not available.

Snow Depth

Station Depth Elevation

Earthquake Activity

City Distance Mag. Time & Date
Minimum magnitude displayed is 2.5.

Coastal Water Temperatures

Place Temperature

Stations

Nearby Weather Stations

Station Location Temp. Windchill Dew Point Humidity Wind Precip. Elev Updated Type